METAR v bližini

 

LJLJ - Ljubljana/Brnik, Slovenia
Oddaljenost od postaje: W 41km
Podatki zajeti: 21/07/2024 21:30
Delno oblačno
Delno oblačno
 Veter iz smeri E
Veter: E 4 km/h
Temperatura: 24°C
Rosišče: 21°C
Vlažnost: 83%
Tlak: 1011 hPa
Oblačnost: Delno oblačno
Vidljivost: 10 km
Podrobnosti o oblakih: Delno oblačno 1433 m
2024/07/21 19:30 LJLJ 211930Z 10002KT 9999 SCT047 24/21 Q1011 NOSIG
LJMB - Maribor, Slovenia
Oddaljenost od postaje: NE 63km
Podatki zajeti: 21/07/2024 21:30
Jasno
Jasno
 Veter iz smeri SE
Veter: SE 7 km/h
Temperatura: 24°C
Rosišče: 20°C
Vlažnost: 78%
Tlak: 1010 hPa
Oblačnost: Jasno
Vidljivost: 10 km
2024/07/21 19:30 LJMB 211930Z AUTO 14004KT 9999 NCD 24/20 Q1010
 
LJPZ - Portoroz, Slovenia
Oddaljenost od postaje: SW 130km
Podatki zajeti: 21/07/2024 21:30
Jasno
Jasno
 Veter iz smeri ESE
Veter: ESE 9 km/h
Temperatura: 25°C
Rosišče: 21°C
Vlažnost: 79%
Tlak: 1009 hPa
Oblačnost: Jasno
Vidljivost: 10 km
2024/07/21 19:30 LJPZ 211930Z AUTO 12005KT 9999 NCD 25/21 Q1009
LJCE - Cerklje, Slovenia
Oddaljenost od postaje: ESE 49km
Podatki zajeti: 21/07/2024 21:30
Jasno
Jasno
 Veter iz smeri spremenljiv
Veter: spremenljiv 2 km/h
Temperatura: 24°C
Rosišče: 20°C
Vlažnost: 78%
Tlak: 1010 hPa
Oblačnost: Jasno
Vidljivost: 10 km
2024/07/21 19:30 LJCE 211930Z AUTO VRB01KT 9999 NCD 24/20 Q1010
 
LDZA - Zagreb/Pleso, Croatia
Oddaljenost od postaje: ESE 96km
Podatki zajeti: 21/07/2024 21:30
Jasno
Jasno
 Veter iz smeri ESE
Veter: ESE 6 km/h
Temperatura: 24°C
Rosišče: 19°C
Vlažnost: 74%
Tlak: 1009 hPa
Stanje: Jasno
Vidljivost: večja od 10 km
2024/07/21 19:30 LDZA 211930Z 12003KT CAVOK 24/19 Q1009 NOSIG
LDRI - Rijeka/Omisalj, Croatia
Oddaljenost od postaje: SSW 109km
Podatki zajeti: 21/07/2024 21:30
Jasno
Jasno
 Veter iz smeri calm
Veter: Calm
Temperatura: 26°C
Rosišče: 20°C
Vlažnost: 70%
Tlak: 1009 hPa
Stanje: Jasno
Vidljivost: večja od 10 km
2024/07/21 19:30 LDRI 211930Z 00000KT CAVOK 26/20 Q1009
 
LDPL - Pula, Croatia
Oddaljenost od postaje: SSW 164km
Podatki zajeti: 21/07/2024 21:30
Jasno
Jasno
 Veter iz smeri spremenljiv
Veter: spremenljiv 4 km/h
Temperatura: 23°C
Rosišče: 19°C
Vlažnost: 78%
Tlak: 1010 hPa
Stanje: Jasno
Vidljivost: večja od 10 km
2024/07/21 19:30 LDPL 211930Z VRB02KT CAVOK 23/19 Q1010 NOSIG
LOWK - Klagenfurt(Civ/M, Austria
Oddaljenost od postaje: NW 76km
Podatki zajeti: 21/07/2024 21:20
Rahlo oblačno
Rahlo oblačno
 Veter iz smeri spremenljiv
Veter: spremenljiv 4 km/h
Temperatura: 24°C
Rosišče: 19°C
Vlažnost: 74%
Tlak: 1011 hPa
Oblačnost: Rahlo oblačno
Vidljivost: 10 km
Podrobnosti o oblakih: Rahlo oblačno 1829 m
2024/07/21 19:20 LOWK 211920Z VRB02KT 9999 FEW060 24/19 Q1011 NOSIG
 
LOWG - Graz (mil/Civ), Austria
Oddaljenost od postaje: NNE 100km
Podatki zajeti: 21/07/2024 21:20
Jasno
Jasno
 Veter iz smeri E
Veter: E 4 km/h
Temperatura: 24°C
Rosišče: 18°C
Vlažnost: 69%
Tlak: 1011 hPa
Oblačnost: Jasno
Vidljivost: 10 km
2024/07/21 19:20 LOWG 211920Z AUTO 09002KT 9999 NCD 24/18 Q1011 NOSIG
LOAN - Wr.neustadt East, Austria
Oddaljenost od postaje: NNE 212km
Podatki zajeti: 21/07/2024 21:00
Jasno
Jasno
 Veter iz smeri spremenljiv
Veter: spremenljiv 4 km/h
Stanje: Jasno
Vidljivost: večja od 10 km
2024/07/21 19:00 LOAN 211900Z VRB02KT CAVOK ///// Q////
 
LIPQ - Ronchi Legionari, Italy
Oddaljenost od postaje: SW 35km
Podatki zajeti: 21/07/2024 21:20
Jasno
Jasno
 Veter iz smeri calm
Veter: Calm
Temperatura: 25°C
Rosišče: 22°C
Vlažnost: 83%
Tlak: 1009 hPa
Oblačnost: Jasno
Vidljivost: 10 km
2024/07/21 19:20 LIPQ 211920Z AUTO 00000KT 9999 NCD 25/22 Q1009
LIVT - Trieste, Italy
Oddaljenost od postaje: WSW 109km
Podatki zajeti: 21/07/2024 20:55

 Veter iz smeri spremenljiv
Veter: spremenljiv 4 km/h
Temperatura: 26°C
Rosišče: 18°C
Vlažnost: 61%
Tlak: 1009 hPa
2024/07/21 18:55 LIVT 211855Z AUTO VRB02KT //// 26/18 Q1009
 
LIVO - Tarvisio, Italy
Oddaljenost od postaje: NNW 49km
Podatki zajeti: 19/07/2024 11:55
Ni posodobljen
Delno oblačno
Delno oblačno
 Veter iz smeri ESE
Veter: ESE 6 km/h
Temperatura: 26°C
Rosišče: 19°C
Vlažnost: 65%
Tlak: 1020 hPa
Oblačnost: Delno oblačno
Vidljivost: 10 km
Podrobnosti o oblakih: Delno oblačno 762 m
2024/07/19 09:55 LIVO 190955Z 12003KT 9999 SCT025 26/19 Q1020
LIPZ - Venezia/Tessera, Italy
Oddaljenost od postaje: WSW 217km
Podatki zajeti: 21/07/2024 21:20
Delno oblačno
Delno oblačno
 Veter iz smeri SSE
Veter: SSE 9 km/h
Temperatura: 28°C
Toplotni indeks: 30°C
Rosišče: 21°C
Vlažnost: 66%
Tlak: 1008 hPa
Oblačnost: Delno oblačno
Vidljivost: 10 km
Podrobnosti o oblakih: Delno oblačno 2134 m
2024/07/21 19:20 LIPZ 211920Z 16005KT 9999 SCT070 28/21 Q1008 NOSIG
 
LHSM - Balaton, Hungary
Oddaljenost od postaje: ENE 177km
Podatki zajeti: 21/07/2024 21:15
Jasno
Jasno
 Veter iz smeri WSW
Veter: WSW 7 km/h
Temperatura: 24°C
Rosišče: 19°C
Vlažnost: 74%
Tlak: 1009 hPa
Oblačnost: Jasno
Vidljivost: 6 km
2024/07/21 19:15 LHSM 211915Z AUTO 25004KT 6000 NCD 24/19 Q1009